deformed-offering
Saratoga-Weather Station Historical Data
 
Daily Summary for December 01, 2022 Units:  English    Metric   Both
Daily Weekly Monthly Yearly
  Current: High: Low: Average:
Temperature: 47.9 °F 49.5 °F 45.4 °F 48.2 °F
Dew Point: 44 °F 44.3 °F 40.8 °F 43.5 °F
Humidity: 86.5% 86.9% 81% 84%
Wind Speed: 6.6mph 9.2mph 0.7mph 4.7mph
Wind Gust: 13.8mph 21mph - -
WindEast - - ESE
Pressure: 29.82 in 29.88 in 29.82 in -
Precipitation: 0.00 in      
 
 
Tabular Data for December 01, 2022
Time Temperature Dew Point Pressure Wind Wind Speed Wind Gust Humidity Rainfall Rate (Hourly) solar
00:09 45.4 °F 40.8 °F 29.88 in NNE 0.7 mph 2.3 mph 84% 0.00 in 0 W/m2
00:14 45.4 °F 40.8 °F 29.88 in NNW 1.4 mph 3 mph 84% 0.00 in 0 W/m2
00:19 45.5 °F 41.1 °F 29.88 in NNE 2.3 mph 6 mph 84.6% 0.00 in 0 W/m2
00:24 45.6 °F 41.3 °F 29.88 in NE 2.1 mph 6 mph 85% 0.00 in 0 W/m2
00:29 45.7 °F 41.4 °F 29.88 in North 1.3 mph 5 mph 85% 0.00 in 0 W/m2
00:34 45.8 °F 41.5 °F 29.87 in NW 0.9 mph 5 mph 85% 0.00 in 0 W/m2
00:39 45.8 °F 41.5 °F 29.87 in NE 0.8 mph 3.5 mph 85% 0.00 in 0 W/m2
00:44 45.9 °F 41.6 °F 29.87 in ESE 0.8 mph 3 mph 85% 0.00 in 0 W/m2
00:49 46 °F 41.7 °F 29.87 in East 0.8 mph 3.5 mph 85% 0.00 in 0 W/m2
00:54 46.1 °F 41.9 °F 29.87 in East 1 mph 3.5 mph 85.5% 0.00 in 0 W/m2
00:59 46.1 °F 42.1 °F 29.87 in East 4 mph 8.1 mph 86% 0.00 in 0 W/m2
01:04 46.6 °F 42.8 °F 29.87 in East 5.6 mph 12 mph 86.9% 0.00 in 0 W/m2
01:09 47.1 °F 43.3 °F 29.87 in East 3.3 mph 12 mph 86.6% 0.00 in 0 W/m2
01:14 47.3 °F 43.3 °F 29.87 in ENE 1.4 mph 7 mph 86% 0.00 in 0 W/m2
01:19 47.4 °F 43.6 °F 29.86 in East 2.4 mph 7 mph 86.6% 0.00 in 0 W/m2
01:24 47.7 °F 43.8 °F 29.86 in East 1.3 mph 6 mph 86.3% 0.00 in 0 W/m2
01:29 47.9 °F 43.9 °F 29.86 in East 3.1 mph 6 mph 86% 0.00 in 0 W/m2
01:34 48.1 °F 44.1 °F 29.86 in SSE 1.9 mph 6 mph 86% 0.00 in 0 W/m2
01:39 48.2 °F 44.2 °F 29.86 in ESE 2.3 mph 9 mph 86% 0.00 in 0 W/m2
01:44 48.3 °F 44 °F 29.86 in East 4.3 mph 10 mph 85.1% 0.00 in 0 W/m2
01:49 48.5 °F 44.2 °F 29.87 in SE 3.6 mph 13 mph 85% 0.00 in 0 W/m2
01:54 48.8 °F 44.2 °F 29.86 in SSE 3.3 mph 13 mph 83.9% 0.00 in 0 W/m2
01:59 49 °F 44.1 °F 29.86 in South 3.9 mph 13 mph 82.9% 0.00 in 0 W/m2
02:04 49.2 °F 43.9 °F 29.86 in South 5 mph 19.6 mph 82% 0.00 in 0 W/m2
02:09 49.4 °F 43.9 °F 29.86 in South 3.7 mph 20 mph 81.3% 0.00 in 0 W/m2
02:14 49.5 °F 43.9 °F 29.86 in South 3.3 mph 12 mph 81% 0.00 in 0 W/m2
02:19 49.5 °F 43.9 °F 29.85 in South 2.8 mph 12 mph 81% 0.00 in 0 W/m2
02:24 49.5 °F 43.9 °F 29.85 in South 4.6 mph 14 mph 81% 0.00 in 0 W/m2
02:29 49.5 °F 44.1 °F 29.85 in South 4.5 mph 14 mph 81.7% 0.00 in 0 W/m2
02:34 49.5 °F 44.2 °F 29.85 in SSW 5.4 mph 14 mph 82% 0.00 in 0 W/m2
02:39 49.5 °F 44.2 °F 29.85 in South 5.1 mph 14 mph 82% 0.00 in 0 W/m2
02:44 49.5 °F 44.1 °F 29.85 in SSE 4.4 mph 12 mph 81.6% 0.00 in 0 W/m2
02:49 49.4 °F 43.9 °F 29.85 in South 4.6 mph 12 mph 81.2% 0.00 in 0 W/m2
02:54 49.5 °F 43.9 °F 29.85 in South 5.2 mph 12 mph 81% 0.00 in 0 W/m2
02:59 49.5 °F 43.9 °F 29.85 in SSE 3.2 mph 12 mph 81% 0.00 in 0 W/m2
03:04 49.4 °F 43.8 °F 29.85 in SE 3 mph 12 mph 81% 0.00 in 0 W/m2
03:09 49.4 °F 43.8 °F 29.85 in SE 3.5 mph 12 mph 81% 0.00 in 0 W/m2
03:14 49.4 °F 43.8 °F 29.85 in SE 3.1 mph 12 mph 81% 0.00 in 0 W/m2
03:19 49.4 °F 43.8 °F 29.85 in SE 3.4 mph 7 mph 81% 0.00 in 0 W/m2
03:24 49.4 °F 43.8 °F 29.85 in SE 3.6 mph 8.1 mph 81% 0.00 in 0 W/m2
03:29 49.4 °F 43.8 °F 29.85 in ESE 3.2 mph 11.5 mph 81% 0.00 in 0 W/m2
03:34 49.4 °F 43.8 °F 29.85 in ESE 3.9 mph 12 mph 81.1% 0.00 in 0 W/m2
03:39 49.4 °F 44.1 °F 29.85 in ESE 3.8 mph 11.5 mph 82% 0.00 in 0 W/m2
03:44 49.4 °F 44.1 °F 29.85 in ESE 5.2 mph 12 mph 82% 0.00 in 0 W/m2
03:49 49.3 °F 44.3 °F 29.85 in ESE 5.5 mph 13 mph 82.7% 0.00 in 0 W/m2
03:54 49.2 °F 44.3 °F 29.85 in ESE 5 mph 13 mph 83% 0.00 in 0 W/m2
03:59 49.1 °F 44.2 °F 29.85 in East 7.6 mph 15 mph 83% 0.00 in 0 W/m2
04:04 49 °F 44.1 °F 29.85 in ESE 6.8 mph 19.6 mph 83% 0.00 in 0 W/m2
04:09 48.9 °F 43.7 °F 29.84 in ESE 7.5 mph 20 mph 82.3% 0.00 in 0 W/m2
04:14 48.8 °F 43.5 °F 29.84 in East 8.7 mph 17.3 mph 82% 0.00 in 0 W/m2
04:19 48.7 °F 43.5 °F 29.84 in East 9 mph 19.6 mph 82% 0.00 in 0 W/m2
04:24 48.6 °F 43.4 °F 29.84 in East 8.9 mph 20 mph 82% 0.00 in 0 W/m2
04:29 48.4 °F 43.4 °F 29.84 in East 9 mph 20 mph 82.7% 0.00 in 0 W/m2
04:34 48.3 °F 43.4 °F 29.83 in East 7.4 mph 20 mph 83% 0.00 in 0 W/m2
04:39 48.2 °F 43.6 °F 29.83 in East 8.2 mph 17.3 mph 83.9% 0.00 in 0 W/m2
04:44 48.2 °F 43.7 °F 29.83 in East 6.6 mph 18 mph 84.2% 0.00 in 0 W/m2
04:49 48.1 °F 43.8 °F 29.83 in East 8.5 mph 18.4 mph 85% 0.00 in 0 W/m2
04:54 48 °F 43.7 °F 29.83 in East 9 mph 17.3 mph 85% 0.00 in 0 W/m2
04:59 48 °F 43.9 °F 29.83 in East 9.2 mph 18.4 mph 85.6% 0.00 in 0 W/m2
05:04 48 °F 44 °F 29.83 in East 9.2 mph 18 mph 86% 0.00 in 0 W/m2
05:09 48 °F 44 °F 29.83 in East 8.5 mph 19 mph 86% 0.00 in 0 W/m2
05:14 48 °F 44 °F 29.83 in East 8.2 mph 21 mph 86% 0.00 in 0 W/m2
05:19 48 °F 44 °F 29.82 in East 7.8 mph 21 mph 86% 0.00 in 0 W/m2
05:24 48 °F 44 °F 29.82 in ENE 5.7 mph 13 mph 86% 0.00 in 0 W/m2
05:29 47.9 °F 43.9 °F 29.82 in East 8.5 mph 14 mph 86% 0.00 in 0 W/m2
05:34 47.9 °F 44 °F 29.82 in East 6.6 mph 13.8 mph 86.5% 0.00 in 0 W/m2
Saratoga, California, USA
Compliments of Weather Underground - 2 mb

WU-history PHP script courtesy of Juneau County Weather and modified for WU/TWC API use by Saratoga-weather.org

This script set is available on GitHub.

deformed-offering